Time;durP1;ratioP1;P1;durP2;ratioP2;P2;SDS_P1;SDS_P2;PMS_P1;PMS_P2;Temp;Humidity;BMP_temperature;BMP_pressure;BME280_temperature;BME280_humidity;BME280_pressure;Samples;Min_cycle;Max_cycle;Signal;HPM_P1;HPM_P2
2022/07/17 00:00:21;;;;;;;;;;;;;;;19.34;76.86;95572.81;5134688;27;981;-49
2022/07/17 00:02:48;;;;;;;;;;;;;;;19.16;77.16;95565.25;5134583;27;1008;-49
2022/07/17 00:05:14;;;;;;;;;;;;;;;19.10;77.99;95573.16;5134120;27;1901;-49
2022/07/17 00:07:40;;;;;;;;;;;;;;;19.23;78.10;95576.94;5116254;27;937;-49
2022/07/17 00:10:06;;;;;;;;;;;;;;;19.31;77.32;95580.31;5134184;27;992;-49
2022/07/17 00:12:33;;;;;;;;;;;;;;;19.48;76.90;95579.91;5134343;27;962;-49
2022/07/17 00:14:59;;;;;;;;;;;;;;;19.46;76.77;95576.56;5134138;27;1036;-49
2022/07/17 00:17:25;;;;;;;;;;;;;;;19.37;76.52;95570.53;5134554;27;973;-49
2022/07/17 00:19:51;;;;;;;;;;;;;;;19.38;76.94;95574.06;5134290;28;988;-49
2022/07/17 00:22:17;;;;;;;;;;;;;;;19.56;75.98;95573.44;5134390;28;1045;-49
2022/07/17 00:24:43;;;;;;;;;;;;;;;19.57;76.48;95570.53;5135355;27;2049;-48
2022/07/17 00:27:09;;;;;;;;;;;;;;;19.22;77.39;95580.72;5138272;27;1055;-49
2022/07/17 00:29:35;;;;;;;;;;;;;;;19.08;78.27;95579.81;5138468;27;1039;-48
2022/07/17 00:32:01;;;;;;;;;;;;;;;19.06;78.51;95576.47;5138502;27;957;-48
2022/07/17 00:34:27;;;;;;;;;;;;;;;18.95;78.62;95577.06;5138111;27;1219;-49
2022/07/17 00:36:53;;;;;;;;;;;;;;;19.14;78.17;95581.69;5138467;27;1019;-49
2022/07/17 00:39:19;;;;;;;;;;;;;;;19.23;77.82;95587.78;5138035;27;988;-49
2022/07/17 00:41:45;;;;;;;;;;;;;;;19.34;77.58;95587.19;5138144;27;972;-49
2022/07/17 00:44:12;;;;;;;;;;;;;;;19.42;77.72;95603.25;5121514;27;1177;-49
2022/07/17 00:46:38;;;;;;;;;;;;;;;19.27;78.04;95608.88;5117653;28;1910;-49
2022/07/17 00:49:05;;;;;;;;;;;;;;;19.13;78.42;95609.84;5117264;28;1965;-49
2022/07/17 00:51:31;;;;;;;;;;;;;;;19.08;78.80;95601.50;5117537;28;992;-49
2022/07/17 00:53:58;;;;;;;;;;;;;;;19.29;77.92;95604.09;5117255;28;969;-49
2022/07/17 00:56:24;;;;;;;;;;;;;;;19.37;77.55;95600.34;5130329;27;1617;-49
2022/07/17 00:58:51;;;;;;;;;;;;;;;19.45;77.16;95600.16;5137794;27;1019;-48
2022/07/17 01:01:17;;;;;;;;;;;;;;;19.50;77.47;95600.38;5137773;27;1004;-48
2022/07/17 01:03:43;;;;;;;;;;;;;;;19.47;77.86;95605.38;5137921;27;1034;-48
2022/07/17 01:06:09;;;;;;;;;;;;;;;19.27;77.31;95606.16;5137229;27;1902;-48
2022/07/17 01:08:36;;;;;;;;;;;;;;;18.98;79.11;95607.28;5137631;27;1075;-49
2022/07/17 01:11:02;;;;;;;;;;;;;;;18.83;79.30;95620.97;5137283;27;973;-49
2022/07/17 01:13:29;;;;;;;;;;;;;;;19.01;78.69;95603.34;5137508;27;1086;-48
2022/07/17 01:15:55;;;;;;;;;;;;;;;19.26;77.58;95599.06;5137364;27;1032;-49
2022/07/17 01:18:22;;;;;;;;;;;;;;;19.39;77.34;95602.81;5137533;27;1120;-49
2022/07/17 01:20:48;;;;;;;;;;;;;;;19.24;78.12;95609.28;5137268;27;952;-48
2022/07/17 01:23:16;;;;;;;;;;;;;;;19.11;78.48;95617.34;5137251;27;1032;-48
2022/07/17 01:25:42;;;;;;;;;;;;;;;19.09;78.97;95608.59;5137025;27;1996;-49
2022/07/17 01:28:08;;;;;;;;;;;;;;;18.91;78.78;95614.56;5137304;27;1020;-49
2022/07/17 01:30:34;;;;;;;;;;;;;;;18.78;79.45;95626.16;5137035;27;1036;-49
2022/07/17 01:33:01;;;;;;;;;;;;;;;18.62;79.85;95616.47;5137215;27;1048;-49
2022/07/17 01:35:27;;;;;;;;;;;;;;;18.73;79.65;95628.63;5136789;27;969;-49
2022/07/17 01:37:53;;;;;;;;;;;;;;;18.71;79.71;95617.16;5137157;27;1059;-49
2022/07/17 01:40:19;;;;;;;;;;;;;;;18.74;79.30;95619.44;5136682;27;1024;-49
2022/07/17 01:42:47;;;;;;;;;;;;;;;18.80;79.28;95616.00;5137187;27;1184;-49
2022/07/17 01:45:14;;;;;;;;;;;;;;;18.69;79.13;95613.81;5118602;27;1986;-49
2022/07/17 01:47:40;;;;;;;;;;;;;;;18.75;78.84;95620.31;5136936;27;1024;-49
2022/07/17 01:50:07;;;;;;;;;;;;;;;18.64;78.82;95610.88;5136592;27;1008;-49
2022/07/17 01:52:35;;;;;;;;;;;;;;;18.43;79.78;95606.38;5136816;27;972;-49
2022/07/17 01:55:01;;;;;;;;;;;;;;;18.46;79.46;95600.56;5136328;27;1665;-49
2022/07/17 01:57:27;;;;;;;;;;;;;;;18.66;78.78;95606.91;5137021;27;974;-48
2022/07/17 01:59:53;;;;;;;;;;;;;;;18.67;79.13;95607.75;5136711;27;917;-48
2022/07/17 02:02:19;;;;;;;;;;;;;;;18.50;79.96;95616.19;5136661;27;1022;-49
2022/07/17 02:04:45;;;;;;;;;;;;;;;18.27;80.16;95610.22;5136333;27;1957;-49
2022/07/17 02:07:11;;;;;;;;;;;;;;;18.09;81.14;95616.94;5136312;27;1036;-49
2022/07/17 02:09:37;;;;;;;;;;;;;;;18.13;80.98;95629.06;5136452;27;995;-49
2022/07/17 02:12:03;;;;;;;;;;;;;;;18.18;80.86;95625.78;5136439;27;971;-49
2022/07/17 02:14:30;;;;;;;;;;;;;;;18.42;79.57;95624.50;5136399;27;1019;-49
2022/07/17 02:16:56;;;;;;;;;;;;;;;18.41;79.48;95620.09;5136366;27;961;-49
2022/07/17 02:19:22;;;;;;;;;;;;;;;18.36;79.52;95622.56;5136307;27;1015;-49
2022/07/17 02:21:48;;;;;;;;;;;;;;;18.37;79.21;95621.53;5136154;27;1072;-48
2022/07/17 02:24:14;;;;;;;;;;;;;;;18.30;80.02;95637.72;5136105;27;1044;-49
2022/07/17 02:26:40;;;;;;;;;;;;;;;18.16;79.92;95637.84;5136208;27;1985;-48
2022/07/17 02:29:06;;;;;;;;;;;;;;;18.08;80.13;95636.94;5136222;27;1023;-48
2022/07/17 02:31:32;;;;;;;;;;;;;;;18.04;80.59;95632.09;5135819;27;1052;-49
2022/07/17 02:33:58;;;;;;;;;;;;;;;17.83;81.91;95631.09;5136005;27;1009;-49
2022/07/17 02:36:24;;;;;;;;;;;;;;;17.82;82.22;95642.09;5135573;27;1118;-49
2022/07/17 02:38:50;;;;;;;;;;;;;;;18.01;81.05;95633.34;5135901;27;1051;-49
2022/07/17 02:41:17;;;;;;;;;;;;;;;18.05;81.09;95634.63;5135555;27;1114;-48
2022/07/17 02:43:43;;;;;;;;;;;;;;;18.16;80.33;95630.56;5123764;27;1169;-49
2022/07/17 02:46:09;;;;;;;;;;;;;;;18.12;80.45;95634.69;5114866;28;1985;-49
2022/07/17 02:48:35;;;;;;;;;;;;;;;17.89;81.31;95634.88;5114770;28;961;-49
2022/07/17 02:51:01;;;;;;;;;;;;;;;17.91;81.34;95630.16;5114862;28;1088;-49
2022/07/17 02:53:27;;;;;;;;;;;;;;;17.81;82.00;95640.41;5115002;28;1035;-49
2022/07/17 02:55:53;;;;;;;;;;;;;;;17.79;81.78;95628.94;5123444;27;1233;-48
2022/07/17 02:58:19;;;;;;;;;;;;;;;17.98;81.26;95638.31;5135619;27;961;-48
2022/07/17 03:00:45;;;;;;;;;;;;;;;18.08;81.42;95642.34;5135371;27;1063;-49
2022/07/17 03:03:11;;;;;;;;;;;;;;;17.94;81.22;95645.97;5135366;27;1032;-49
2022/07/17 03:05:37;;;;;;;;;;;;;;;17.95;81.90;95653.06;5135183;27;2003;-48
2022/07/17 03:08:03;;;;;;;;;;;;;;;17.98;81.60;95658.06;5135052;27;976;-49
2022/07/17 03:10:29;;;;;;;;;;;;;;;18.02;81.56;95647.69;5135578;27;1059;-49
2022/07/17 03:12:55;;;;;;;;;;;;;;;18.09;81.52;95646.72;5135251;27;1011;-49
2022/07/17 03:15:21;;;;;;;;;;;;;;;17.97;80.57;95653.72;5135332;27;1118;-48
2022/07/17 03:17:47;;;;;;;;;;;;;;;17.50;82.12;95655.09;5134965;27;1048;-49
2022/07/17 03:20:13;;;;;;;;;;;;;;;17.68;82.14;95660.91;5116832;27;988;-48
2022/07/17 03:22:39;;;;;;;;;;;;;;;17.78;81.41;95659.75;5134795;27;1029;-48
2022/07/17 03:25:06;;;;;;;;;;;;;;;17.95;81.19;95661.19;5135149;27;1905;-49
2022/07/17 03:27:31;;;;;;;;;;;;;;;17.93;81.18;95649.72;5135095;27;966;-49
2022/07/17 03:29:57;;;;;;;;;;;;;;;18.03;81.17;95646.69;5135439;27;1071;-49
2022/07/17 03:32:23;;;;;;;;;;;;;;;17.79;81.72;95656.00;5134835;27;961;-48
2022/07/17 03:34:49;;;;;;;;;;;;;;;17.75;82.07;95656.38;5134793;27;954;-49
2022/07/17 03:37:15;;;;;;;;;;;;;;;17.99;80.95;95657.06;5134590;27;2024;-49
2022/07/17 03:39:42;;;;;;;;;;;;;;;17.93;81.44;95669.50;5135114;27;952;-49
2022/07/17 03:42:08;;;;;;;;;;;;;;;17.95;81.74;95670.13;5134536;27;996;-49
2022/07/17 03:44:34;;;;;;;;;;;;;;;18.17;81.43;95661.97;5134629;27;1909;-49
2022/07/17 03:47:00;;;;;;;;;;;;;;;18.14;82.17;95670.50;5116452;27;953;-49
2022/07/17 03:49:26;;;;;;;;;;;;;;;18.13;81.23;95669.66;5134764;27;1004;-49
2022/07/17 03:51:52;;;;;;;;;;;;;;;18.07;81.20;95673.13;5134367;27;969;-48
2022/07/17 03:54:18;;;;;;;;;;;;;;;18.04;82.17;95670.84;5134832;27;1042;-49
2022/07/17 03:56:44;;;;;;;;;;;;;;;18.02;81.80;95677.47;5134306;27;1218;-49
2022/07/17 03:59:10;;;;;;;;;;;;;;;18.13;81.65;95687.75;5133785;27;969;-49
2022/07/17 04:01:36;;;;;;;;;;;;;;;18.15;81.57;95680.28;5134510;27;1086;-49
2022/07/17 04:04:02;;;;;;;;;;;;;;;18.03;82.45;95690.81;5134183;27;1217;-49
2022/07/17 04:06:28;;;;;;;;;;;;;;;17.94;82.96;95690.09;5134490;27;1909;-48
2022/07/17 04:08:54;;;;;;;;;;;;;;;17.98;83.28;95687.84;5134240;27;1011;-49
2022/07/17 04:11:20;;;;;;;;;;;;;;;18.10;82.76;95693.56;5134553;27;1023;-49
2022/07/17 04:13:47;;;;;;;;;;;;;;;18.39;81.46;95699.84;5134443;27;933;-48
2022/07/17 04:16:13;;;;;;;;;;;;;;;18.61;81.37;95706.88;5134449;27;969;-49
2022/07/17 04:18:39;;;;;;;;;;;;;;;18.83;80.96;95698.72;5134276;27;1104;-48
2022/07/17 04:21:07;;;;;;;;;;;;;;;19.13;80.01;95704.72;5134294;28;1057;-48
2022/07/17 04:23:33;;;;;;;;;;;;;;;19.31;80.31;95702.31;5134077;28;973;-49
2022/07/17 04:25:59;;;;;;;;;;;;;;;19.30;80.33;95705.22;5134439;28;1910;-48
2022/07/17 04:28:25;;;;;;;;;;;;;;;19.37;80.60;95706.09;5134250;28;1031;-52
2022/07/17 04:30:51;;;;;;;;;;;;;;;19.57;80.82;95708.03;5134523;28;1082;-48
2022/07/17 04:33:17;;;;;;;;;;;;;;;19.85;78.84;95708.75;5134098;28;1061;-48
2022/07/17 04:35:43;;;;;;;;;;;;;;;20.14;77.41;95714.03;5134051;28;1032;-47
2022/07/17 04:38:10;;;;;;;;;;;;;;;20.36;76.54;95699.22;5133894;28;1064;-48
2022/07/17 04:40:36;;;;;;;;;;;;;;;20.60;74.87;95707.78;5134155;28;1028;-48
2022/07/17 04:43:03;;;;;;;;;;;;;;;20.55;75.89;95707.56;5127471;28;1184;-48
2022/07/17 04:45:29;;;;;;;;;;;;;;;20.42;78.63;95714.66;5113622;28;1914;-48
2022/07/17 04:47:55;;;;;;;;;;;;;;;20.36;78.72;95720.94;5113437;28;1039;-48
2022/07/17 04:50:21;;;;;;;;;;;;;;;20.43;78.65;95718.22;5113471;28;1020;-48
2022/07/17 04:52:48;;;;;;;;;;;;;;;20.77;74.87;95730.78;5113262;28;1832;-48
2022/07/17 04:55:14;;;;;;;;;;;;;;;21.16;72.58;95728.19;5098642;28;1259;-48
2022/07/17 04:57:40;;;;;;;;;;;;;;;21.37;71.76;95727.91;5133931;28;1216;-47
2022/07/17 05:00:08;;;;;;;;;;;;;;;21.53;71.52;95734.81;5134028;28;964;-48
2022/07/17 05:02:34;;;;;;;;;;;;;;;21.70;71.20;95734.28;5133987;28;1029;-48
2022/07/17 05:05:00;;;;;;;;;;;;;;;21.89;70.54;95732.53;5133418;28;1906;-48
2022/07/17 05:07:26;;;;;;;;;;;;;;;21.95;69.99;95723.47;5134137;28;1040;-48
2022/07/17 05:09:52;;;;;;;;;;;;;;;22.11;69.16;95722.13;5134011;27;1021;-48
2022/07/17 05:12:18;;;;;;;;;;;;;;;22.31;68.41;95725.59;5137747;27;948;-48
2022/07/17 05:14:45;;;;;;;;;;;;;;;22.55;67.66;95731.28;5137509;27;1107;-49
2022/07/17 05:17:11;;;;;;;;;;;;;;;22.61;66.55;95727.66;5137651;27;1028;-48
2022/07/17 05:19:37;;;;;;;;;;;;;;;22.74;65.81;95732.97;5137493;27;1047;-48
2022/07/17 05:22:04;;;;;;;;;;;;;;;22.77;65.62;95739.91;5137408;27;1083;-49
2022/07/17 05:24:30;;;;;;;;;;;;;;;22.61;66.62;95738.56;5137497;27;1037;-49
2022/07/17 05:26:56;;;;;;;;;;;;;;;22.47;69.70;95745.19;5137464;27;1017;-50
2022/07/17 05:29:22;;;;;;;;;;;;;;;22.35;70.02;95751.34;5137157;27;1851;-48
2022/07/17 05:31:48;;;;;;;;;;;;;;;22.30;67.80;95742.97;5137380;27;1861;-49
2022/07/17 05:34:14;;;;;;;;;;;;;;;22.26;69.04;95746.38;5136918;27;1020;-49
2022/07/17 05:36:40;;;;;;;;;;;;;;;22.12;71.61;95749.16;5137188;27;1051;-49
2022/07/17 05:39:08;;;;;;;;;;;;;;;22.20;70.67;95743.44;5136984;27;1041;-48
2022/07/17 05:41:34;;;;;;;;;;;;;;;22.85;67.47;95738.78;5137365;27;1023;-48
2022/07/17 05:44:00;;;;;;;;;;;;;;;22.86;68.36;95749.47;5136779;27;1240;-48
2022/07/17 05:46:26;;;;;;;;;;;;;;;22.86;67.81;95751.34;5137012;27;1909;-48
2022/07/17 05:48:52;;;;;;;;;;;;;;;22.81;67.03;95754.75;5136920;27;976;-48
2022/07/17 05:51:18;;;;;;;;;;;;;;;23.21;64.19;95746.22;5136925;27;1031;-48
2022/07/17 05:53:44;;;;;;;;;;;;;;;23.35;62.97;95749.63;5137046;27;958;-48
2022/07/17 05:56:10;;;;;;;;;;;;;;;23.29;61.02;95750.53;5136655;27;1640;-49
2022/07/17 05:58:36;;;;;;;;;;;;;;;23.21;60.98;95753.56;5136891;27;1041;-48
2022/07/17 06:01:02;;;;;;;;;;;;;;;23.30;61.25;95750.31;5136589;27;1059;-47
2022/07/17 06:03:29;;;;;;;;;;;;;;;23.29;60.99;95756.00;5136851;27;1040;-49
2022/07/17 06:05:56;;;;;;;;;;;;;;;23.19;62.03;95760.06;5136186;27;1914;-49
2022/07/17 06:08:22;;;;;;;;;;;;;;;23.18;62.10;95757.56;5136572;27;1024;-48
2022/07/17 06:10:48;;;;;;;;;;;;;;;23.21;62.80;95765.31;5136638;27;940;-49
2022/07/17 06:13:14;;;;;;;;;;;;;;;23.28;63.93;95757.91;5136526;27;1036;-49
2022/07/17 06:15:40;;;;;;;;;;;;;;;23.38;64.13;95758.19;5136310;27;1036;-48
2022/07/17 06:18:06;;;;;;;;;;;;;;;23.60;62.89;95771.41;5136466;27;1056;-48
2022/07/17 06:20:32;;;;;;;;;;;;;;;24.08;61.07;95775.25;5136777;27;1033;-49
2022/07/17 06:22:58;;;;;;;;;;;;;;;24.52;59.29;95770.44;5135700;27;995;-49
2022/07/17 06:25:24;;;;;;;;;;;;;;;24.94;58.63;95760.25;5136233;27;1984;-48
2022/07/17 06:27:50;;;;;;;;;;;;;;;25.28;56.13;95756.97;5136306;27;1040;-48
2022/07/17 06:30:17;;;;;;;;;;;;;;;25.57;55.52;95755.13;5136058;27;1031;-49
2022/07/17 06:32:43;;;;;;;;;;;;;;;25.76;54.76;95755.81;5136242;27;1005;-49
2022/07/17 06:35:10;;;;;;;;;;;;;;;25.58;54.57;95753.25;5135614;27;1049;-49
2022/07/17 06:37:36;;;;;;;;;;;;;;;25.45;55.37;95752.44;5136047;27;1088;-48
2022/07/17 06:40:03;;;;;;;;;;;;;;;25.34;56.33;95753.28;5135829;27;1012;-48
2022/07/17 06:42:29;;;;;;;;;;;;;;;25.16;56.10;95754.22;5134373;27;1176;-48
2022/07/17 06:44:55;;;;;;;;;;;;;;;25.25;56.66;95751.97;5115256;28;1914;-48
2022/07/17 06:47:21;;;;;;;;;;;;;;;25.36;54.81;95753.03;5115338;28;1045;-48
2022/07/17 06:49:47;;;;;;;;;;;;;;;25.76;53.78;95758.56;5115014;28;1037;-49
2022/07/17 06:52:13;;;;;;;;;;;;;;;26.01;52.28;95755.56;5115347;28;979;-50
2022/07/17 06:54:39;;;;;;;;;;;;;;;26.06;53.29;95758.38;5115187;28;1045;-49
2022/07/17 06:57:05;;;;;;;;;;;;;;;26.41;52.69;95764.81;5133983;27;1092;-49
2022/07/17 06:59:31;;;;;;;;;;;;;;;26.58;48.93;95767.53;5135498;27;1098;-49
2022/07/17 07:01:57;;;;;;;;;;;;;;;26.49;49.75;95769.88;5135737;27;968;-49
2022/07/17 07:04:23;;;;;;;;;;;;;;;26.32;47.69;95775.31;5135661;27;1203;-49
2022/07/17 07:06:49;;;;;;;;;;;;;;;26.20;48.58;95780.00;5135313;27;1980;-49
2022/07/17 07:09:15;;;;;;;;;;;;;;;26.40;49.25;95774.91;5135607;27;1039;-49
2022/07/17 07:11:41;;;;;;;;;;;;;;;26.72;48.80;95773.59;5135204;27;1004;-49
2022/07/17 07:14:07;;;;;;;;;;;;;;;26.81;47.45;95775.69;5135102;27;1092;-49
2022/07/17 07:16:34;;;;;;;;;;;;;;;26.63;49.31;95770.41;5135199;27;969;-49
2022/07/17 07:19:00;;;;;;;;;;;;;;;26.51;49.58;95784.16;5135118;27;1025;-49
2022/07/17 07:21:26;;;;;;;;;;;;;;;26.20;49.03;95785.47;5134949;27;1047;-49
2022/07/17 07:23:53;;;;;;;;;;;;;;;25.88;49.78;95792.25;5135265;27;1035;-49
2022/07/17 07:26:19;;;;;;;;;;;;;;;25.82;50.25;95782.25;5134935;27;1978;-49
2022/07/17 07:28:45;;;;;;;;;;;;;;;25.90;49.00;95790.09;5135201;27;973;-49
2022/07/17 07:31:11;;;;;;;;;;;;;;;26.22;47.68;95788.84;5134768;27;1037;-49
2022/07/17 07:33:37;;;;;;;;;;;;;;;26.49;47.97;95789.06;5134806;27;1060;-51
2022/07/17 07:36:04;;;;;;;;;;;;;;;26.57;47.51;95791.41;5134724;27;1047;-49
2022/07/17 07:38:30;;;;;;;;;;;;;;;26.46;46.51;95795.03;5135132;27;1008;-49
2022/07/17 07:40:56;;;;;;;;;;;;;;;26.58;46.79;95794.97;5134833;27;1045;-49
2022/07/17 07:43:22;;;;;;;;;;;;;;;26.77;47.17;95801.09;5134786;27;1173;-49
2022/07/17 07:45:48;;;;;;;;;;;;;;;26.94;45.76;95807.44;5134635;27;2017;-50
2022/07/17 07:48:14;;;;;;;;;;;;;;;27.04;45.28;95810.34;5134610;27;1008;-50
2022/07/17 07:50:40;;;;;;;;;;;;;;;27.22;43.50;95806.53;5134848;27;1014;-50
2022/07/17 07:53:06;;;;;;;;;;;;;;;27.13;44.28;95808.03;5134643;27;1036;-50
2022/07/17 07:55:32;;;;;;;;;;;;;;;26.86;44.81;95807.84;5134475;27;1100;-50
2022/07/17 07:58:16;;;;;;;;;;;;;;;27.17;44.97;95808.38;5134741;27;1045;-49
2022/07/17 08:00:43;;;;;;;;;;;;;;;27.20;45.01;95807.84;5134365;27;1024;-49
2022/07/17 08:03:09;;;;;;;;;;;;;;;26.98;44.02;95805.03;5134491;27;1029;-50
2022/07/17 08:05:36;;;;;;;;;;;;;;;26.72;46.05;95801.03;5134273;27;1933;-49
2022/07/17 08:08:02;;;;;;;;;;;;;;;26.44;45.44;95797.19;5134568;27;1040;-48
2022/07/17 08:10:28;;;;;;;;;;;;;;;26.27;44.78;95808.97;5134372;27;1041;-50
2022/07/17 08:12:54;;;;;;;;;;;;;;;26.38;45.35;95807.22;5134499;27;1211;-48
2022/07/17 08:15:21;;;;;;;;;;;;;;;27.07;44.95;95806.25;5134210;27;1024;-48
2022/07/17 08:17:47;;;;;;;;;;;;;;;27.70;44.79;95800.66;5134587;27;1055;-49
2022/07/17 08:20:14;;;;;;;;;;;;;;;28.20;43.47;95807.94;5116207;28;952;-49
2022/07/17 08:22:40;;;;;;;;;;;;;;;28.34;41.80;95802.84;5134436;28;1040;-49
2022/07/17 08:25:06;;;;;;;;;;;;;;;28.46;42.00;95808.22;5134112;28;1909;-49
2022/07/17 08:27:36;;;;;;;;;;;;;;;28.54;41.02;95811.38;5134057;28;1066;-49
2022/07/17 08:30:03;;;;;;;;;;;;;;;28.51;41.08;95808.28;5134097;28;1016;-49
2022/07/17 08:32:29;;;;;;;;;;;;;;;28.42;39.88;95810.66;5134077;28;1950;-49
2022/07/17 08:34:55;;;;;;;;;;;;;;;28.38;41.33;95801.25;5134213;28;1123;-49
2022/07/17 08:37:21;;;;;;;;;;;;;;;28.42;41.22;95807.91;5133935;28;1011;-49
2022/07/17 08:39:47;;;;;;;;;;;;;;;28.48;40.50;95808.81;5134286;28;988;-49
2022/07/17 08:42:16;;;;;;;;;;;;;;;28.64;41.67;95818.91;5133955;28;956;-49
2022/07/17 08:44:42;;;;;;;;;;;;;;;28.75;41.28;95806.91;5093051;28;1909;-49
2022/07/17 08:47:10;;;;;;;;;;;;;;;28.77;39.61;95810.22;5096821;28;980;-49
2022/07/17 08:49:38;;;;;;;;;;;;;;;28.84;40.20;95801.78;5097433;28;1027;-49
2022/07/17 08:52:04;;;;;;;;;;;;;;;28.74;38.55;95801.66;5097120;28;1037;-49
2022/07/17 08:54:30;;;;;;;;;;;;;;;28.71;38.75;95804.94;5097129;28;1859;-49
2022/07/17 08:56:57;;;;;;;;;;;;;;;28.72;39.61;95799.19;5114455;28;1096;-49
2022/07/17 08:59:23;;;;;;;;;;;;;;;28.80;40.03;95803.38;5117307;28;1034;-50
2022/07/17 09:01:49;;;;;;;;;;;;;;;28.85;40.54;95794.34;5117233;28;1008;-49
2022/07/17 09:04:16;;;;;;;;;;;;;;;28.90;40.06;95797.97;5117285;28;949;-49
2022/07/17 09:06:42;;;;;;;;;;;;;;;29.02;40.36;95795.03;5117286;28;1906;-49
2022/07/17 09:09:10;;;;;;;;;;;;;;;29.08;39.71;95793.16;5117297;28;1028;-49
2022/07/17 09:11:50;;;;;;;;;;;;;;;29.02;38.71;95790.34;5117129;28;1024;-49
2022/07/17 09:14:17;;;;;;;;;;;;;;;28.90;39.33;95795.22;5117416;28;1011;-49
2022/07/17 09:16:57;;;;;;;;;;;;;;;28.99;39.40;95785.38;5117161;28;982;-49
2022/07/17 09:19:31;;;;;;;;;;;;;;;29.05;38.28;95791.75;5117164;28;1020;-49
2022/07/17 09:22:26;;;;;;;;;;;;;;;29.01;39.05;95788.72;5117019;28;1013;-50
2022/07/17 09:24:53;;;;;;;;;;;;;;;29.10;39.40;95790.97;5099595;28;1914;-49
2022/07/17 09:27:22;;;;;;;;;;;;;;;29.09;37.77;95790.13;5116880;28;1048;-49
2022/07/17 09:29:51;;;;;;;;;;;;;;;29.00;37.47;95784.28;5117038;28;960;-50
2022/07/17 09:32:18;;;;;;;;;;;;;;;28.94;38.08;95781.75;5116539;28;1052;-49
2022/07/17 09:34:45;;;;;;;;;;;;;;;29.03;38.16;95785.69;5116521;28;1011;-50
2022/07/17 09:37:11;;;;;;;;;;;;;;;29.16;37.28;95787.22;5116499;28;999;-50
2022/07/17 09:39:38;;;;;;;;;;;;;;;29.13;37.27;95785.78;5116947;28;1091;-50
2022/07/17 09:42:04;;;;;;;;;;;;;;;29.07;35.65;95775.81;5116574;28;995;-50
2022/07/17 09:44:30;;;;;;;;;;;;;;;29.10;36.95;95775.31;5135415;27;1158;-49
2022/07/17 09:46:56;;;;;;;;;;;;;;;29.19;37.50;95783.91;5136981;27;1983;-50
2022/07/17 09:49:26;;;;;;;;;;;;;;;29.27;37.13;95780.66;5136964;27;1021;-50
2022/07/17 09:51:52;;;;;;;;;;;;;;;29.24;35.67;95777.63;5137196;27;999;-50
2022/07/17 09:54:20;;;;;;;;;;;;;;;29.28;36.99;95778.75;5137005;27;925;-50
2022/07/17 09:56:49;;;;;;;;;;;;;;;29.31;36.92;95784.56;5135681;27;1233;-50
2022/07/17 09:59:16;;;;;;;;;;;;;;;29.36;36.57;95772.75;5136453;27;979;-50
2022/07/17 10:01:43;;;;;;;;;;;;;;;29.39;36.83;95766.72;5136799;27;1103;-50
2022/07/17 10:04:10;;;;;;;;;;;;;;;29.42;36.56;95770.84;5136243;27;1040;-50
2022/07/17 10:06:36;;;;;;;;;;;;;;;29.48;37.13;95778.91;5136949;27;1992;-50
2022/07/17 10:09:04;;;;;;;;;;;;;;;29.50;35.92;95770.34;5136296;27;1032;-50
2022/07/17 10:11:32;;;;;;;;;;;;;;;29.50;36.24;95762.09;5136779;27;974;-50
2022/07/17 10:14:05;;;;;;;;;;;;;;;29.55;37.65;95767.63;5136310;27;1102;-49
2022/07/17 10:16:32;;;;;;;;;;;;;;;29.76;37.06;95769.41;5136505;27;971;-49
2022/07/17 10:18:59;;;;;;;;;;;;;;;29.80;36.19;95757.88;5136253;27;961;-49
2022/07/17 10:21:26;;;;;;;;;;;;;;;29.66;35.26;95754.75;5136664;27;977;-51
2022/07/17 10:23:54;;;;;;;;;;;;;;;29.64;36.54;95756.94;5136381;27;965;-50
2022/07/17 10:26:36;;;;;;;;;;;;;;;29.67;35.81;95762.75;5136638;27;1991;-49
2022/07/17 10:29:03;;;;;;;;;;;;;;;29.66;36.07;95754.75;5136040;27;1174;-51
2022/07/17 10:31:33;;;;;;;;;;;;;;;29.57;35.38;95754.41;5136230;27;1048;-50
2022/07/17 10:34:01;;;;;;;;;;;;;;;29.49;35.30;95730.97;5136038;27;1037;-51
2022/07/17 10:36:39;;;;;;;;;;;;;;;29.59;35.65;95744.81;5136104;27;1079;-51
2022/07/17 10:39:11;;;;;;;;;;;;;;;29.61;35.04;95743.69;5135965;27;1021;-51
2022/07/17 10:41:38;;;;;;;;;;;;;;;29.65;36.11;95744.81;5136037;27;1047;-50
2022/07/17 10:44:04;;;;;;;;;;;;;;;29.77;36.51;95742.72;5120396;27;1153;-51
2022/07/17 10:46:30;;;;;;;;;;;;;;;29.71;36.53;95739.06;5115524;28;1979;-50
2022/07/17 10:48:56;;;;;;;;;;;;;;;29.76;36.81;95750.13;5115343;28;1012;-50
2022/07/17 10:51:27;;;;;;;;;;;;;;;29.78;36.26;95734.19;5115364;28;976;-50
2022/07/17 10:53:56;;;;;;;;;;;;;;;29.72;35.66;95724.19;5115146;28;1020;-50
2022/07/17 10:56:22;;;;;;;;;;;;;;;29.79;36.34;95737.75;5127709;27;1115;-50
2022/07/17 10:58:48;;;;;;;;;;;;;;;29.90;36.44;95733.09;5136035;27;964;-50
2022/07/17 11:01:18;;;;;;;;;;;;;;;29.96;35.39;95737.56;5135598;27;1032;-50
2022/07/17 11:03:44;;;;;;;;;;;;;;;29.95;35.34;95733.13;5135581;27;1135;-50
2022/07/17 11:06:12;;;;;;;;;;;;;;;29.85;36.45;95733.91;5135171;27;1902;-50
2022/07/17 11:08:42;;;;;;;;;;;;;;;29.89;35.67;95723.19;5134977;27;1005;-50
2022/07/17 11:11:09;;;;;;;;;;;;;;;29.87;35.85;95725.38;5135349;27;1061;-50
2022/07/17 11:13:35;;;;;;;;;;;;;;;29.87;36.23;95725.38;5135694;27;1016;-50
2022/07/17 11:16:01;;;;;;;;;;;;;;;29.93;36.23;95724.31;5135511;27;1041;-50
2022/07/17 11:18:26;;;;;;;;;;;;;;;29.87;35.18;95717.94;5135382;27;961;-49
2022/07/17 11:20:54;;;;;;;;;;;;;;;29.83;36.01;95710.50;5135162;27;1099;-51
2022/07/17 11:23:21;;;;;;;;;;;;;;;29.87;35.24;95712.44;5135132;27;1017;-50
2022/07/17 11:25:57;;;;;;;;;;;;;;;29.90;36.55;95719.31;5134854;27;1994;-50
2022/07/17 11:28:32;;;;;;;;;;;;;;;30.01;35.44;95706.41;5135312;27;1040;-50
2022/07/17 11:30:59;;;;;;;;;;;;;;;30.07;35.64;95719.09;5135192;27;1031;-49
2022/07/17 11:33:25;;;;;;;;;;;;;;;30.06;35.18;95720.22;5135194;27;949;-50
2022/07/17 11:35:54;;;;;;;;;;;;;;;30.10;35.17;95711.13;5134660;27;1091;-53
2022/07/17 11:38:30;;;;;;;;;;;;;;;30.15;35.16;95708.38;5134787;27;1036;-51
2022/07/17 11:40:56;;;;;;;;;;;;;;;30.17;35.72;95708.94;5134984;27;944;-51
2022/07/17 11:43:22;;;;;;;;;;;;;;;30.30;35.07;95706.78;5134967;27;1153;-52
2022/07/17 11:45:48;;;;;;;;;;;;;;;30.30;34.85;95715.88;5134733;27;1910;-51
2022/07/17 11:48:14;;;;;;;;;;;;;;;29.94;35.74;95704.75;5134810;27;957;-51
2022/07/17 11:50:40;;;;;;;;;;;;;;;29.62;35.33;95702.09;5134562;27;966;-52
2022/07/17 11:53:06;;;;;;;;;;;;;;;29.46;36.19;95709.44;5134664;27;1107;-52
2022/07/17 11:58:55;;;;;;;;;;;;;;;29.67;35.75;95706.78;4388442;27;2054;-52
2022/07/17 12:01:21;;;;;;;;;;;;;;;29.72;35.53;95702.13;5134321;27;1000;-51
2022/07/17 12:03:59;;;;;;;;;;;;;;;29.92;36.03;95698.69;5134779;27;1017;-52
2022/07/17 12:06:29;;;;;;;;;;;;;;;30.06;35.25;95703.69;5134429;27;1978;-52
2022/07/17 12:08:55;;;;;;;;;;;;;;;30.07;36.31;95694.28;5134632;27;1031;-51
2022/07/17 12:11:21;;;;;;;;;;;;;;;30.09;35.55;95698.44;5134277;27;952;-51
2022/07/17 12:13:47;;;;;;;;;;;;;;;30.09;35.35;95698.44;5134393;27;1040;-51
2022/07/17 12:16:19;;;;;;;;;;;;;;;30.08;34.92;95688.50;5134391;27;957;-51
2022/07/17 12:18:55;;;;;;;;;;;;;;;30.00;36.00;95691.00;5134546;27;1055;-51
2022/07/17 12:21:21;;;;;;;;;;;;;;;29.88;35.65;95686.53;5133454;27;972;-50
2022/07/17 12:23:55;;;;;;;;;;;;;;;30.01;35.65;95692.63;5134330;28;1084;-51
2022/07/17 12:26:21;;;;;;;;;;;;;;;30.13;36.07;95679.44;5133931;28;1893;-51
2022/07/17 12:28:47;;;;;;;;;;;;;;;30.07;35.64;95683.25;5134552;28;961;-50
2022/07/17 12:31:16;;;;;;;;;;;;;;;30.14;35.60;95689.34;5133978;28;1024;-51
2022/07/17 12:33:43;;;;;;;;;;;;;;;30.02;35.22;95686.84;5134370;28;983;-50
2022/07/17 12:36:09;;;;;;;;;;;;;;;30.06;35.37;95682.44;5133857;28;980;-51
2022/07/17 12:38:35;;;;;;;;;;;;;;;30.14;35.30;95673.63;5134239;28;1117;-51
2022/07/17 12:41:01;;;;;;;;;;;;;;;30.17;35.66;95677.78;5133856;28;1040;-51
2022/07/17 12:43:27;;;;;;;;;;;;;;;30.13;35.67;95674.75;5124236;28;1208;-51
2022/07/17 12:45:54;;;;;;;;;;;;;;;29.82;36.02;95678.50;5113733;28;1986;-51
2022/07/17 12:48:20;;;;;;;;;;;;;;;29.48;35.85;95668.72;5113460;28;1103;-51
2022/07/17 12:50:46;;;;;;;;;;;;;;;29.44;35.80;95675.00;5113430;28;1065;-51
2022/07/17 12:53:13;;;;;;;;;;;;;;;29.56;36.02;95670.13;5113368;28;1041;-51
2022/07/17 12:55:39;;;;;;;;;;;;;;;29.64;35.68;95664.09;5113270;28;992;-51
2022/07/17 12:58:05;;;;;;;;;;;;;;;29.74;36.13;95661.38;5118952;27;1341;-50
2022/07/17 13:00:32;;;;;;;;;;;;;;;29.81;35.53;95663.91;5133863;28;1076;-51